createdAt,value
2018-03-20T00:00:14.241Z,68.37
2018-03-20T00:02:42.057Z,69.79
2018-03-20T00:05:10.386Z,72.96
2018-03-20T00:07:38.025Z,72.76
2018-03-20T00:10:06.595Z,73.93
2018-03-20T00:12:34.446Z,73.78
2018-03-20T00:15:02.097Z,72.08
2018-03-20T00:17:29.801Z,73.60
2018-03-20T00:19:57.331Z,73.24
2018-03-20T00:22:24.906Z,73.69
2018-03-20T00:24:52.516Z,73.80
2018-03-20T00:27:20.207Z,75.07
2018-03-20T00:29:47.842Z,75.59
2018-03-20T00:32:15.412Z,74.97
2018-03-20T00:34:42.957Z,73.33
2018-03-20T00:37:10.786Z,74.51
2018-03-20T00:39:38.507Z,74.32
2018-03-20T00:42:06.322Z,75.78
2018-03-20T00:44:33.942Z,76.06
2018-03-20T00:47:01.555Z,76.52
2018-03-20T00:49:29.095Z,75.20
2018-03-20T00:51:57.201Z,75.92
2018-03-20T00:54:24.742Z,76.66
2018-03-20T00:56:52.413Z,76.12
2018-03-20T00:59:20.032Z,75.80
2018-03-20T01:01:47.876Z,74.66
2018-03-20T01:04:15.544Z,72.44
2018-03-20T01:06:43.254Z,72.71
2018-03-20T01:09:10.893Z,70.20
2018-03-20T01:11:38.447Z,70.18
2018-03-20T01:14:06.116Z,69.92
2018-03-20T01:16:34.615Z,70.42
2018-03-20T01:19:02.191Z,70.13
2018-03-20T01:21:29.866Z,68.93
2018-03-20T01:23:57.493Z,68.28
2018-03-20T01:26:25.331Z,68.30
2018-03-20T01:28:52.916Z,68.36
2018-03-20T01:31:20.570Z,69.38
2018-03-20T01:33:48.591Z,69.90
2018-03-20T01:36:16.201Z,70.16
2018-03-20T01:38:44.030Z,70.02
2018-03-20T01:41:11.637Z,70.34
2018-03-20T01:43:39.182Z,69.36
2018-03-20T01:46:06.900Z,70.21
2018-03-20T01:48:34.512Z,69.58
2018-03-20T01:51:02.250Z,70.26
2018-03-20T01:53:30.052Z,69.70
2018-03-20T01:55:57.821Z,70.41
2018-03-20T01:58:26.191Z,70.30
2018-03-20T02:00:53.725Z,70.23
2018-03-20T02:03:21.650Z,69.63
2018-03-20T02:05:49.324Z,70.54
2018-03-20T02:08:17.001Z,70.76
2018-03-20T02:10:44.696Z,70.46
2018-03-20T02:13:12.336Z,70.79
2018-03-20T02:15:40.017Z,70.41
2018-03-20T02:18:07.622Z,69.73
2018-03-20T02:20:35.158Z,70.19
2018-03-20T02:23:02.800Z,70.77
2018-03-20T02:25:30.565Z,70.43
2018-03-20T02:27:58.307Z,71.16
2018-03-20T02:30:26.097Z,73.04
2018-03-20T02:32:53.826Z,74.46
2018-03-20T02:35:21.357Z,75.83
2018-03-20T02:37:49.160Z,76.23
2018-03-20T02:40:16.706Z,76.05
2018-03-20T02:42:44.394Z,76.88
2018-03-20T02:45:12.333Z,78.15
2018-03-20T02:47:39.956Z,77.43
2018-03-20T02:50:07.615Z,77.50
2018-03-20T02:52:35.206Z,76.55
2018-03-20T02:55:03.158Z,76.11
2018-03-20T02:57:30.991Z,75.93
2018-03-20T02:59:58.635Z,76.05
2018-03-20T03:02:26.287Z,75.69
2018-03-20T03:04:54.116Z,75.47
2018-03-20T03:07:22.540Z,75.46
2018-03-20T03:09:50.215Z,75.16
2018-03-20T03:12:18.294Z,74.84
2018-03-20T03:14:46.556Z,74.34
2018-03-20T03:17:14.379Z,74.27
2018-03-20T03:19:42.222Z,74.13
2018-03-20T03:22:09.976Z,74.31
2018-03-20T03:24:37.830Z,74.84
2018-03-20T03:27:05.522Z,75.54
2018-03-20T03:29:33.115Z,76.34
2018-03-20T03:32:00.956Z,75.73
2018-03-20T03:34:28.515Z,75.88
2018-03-20T03:36:56.096Z,75.74
2018-03-20T03:39:23.946Z,76.16
2018-03-20T03:41:51.607Z,75.96
2018-03-20T03:44:19.875Z,75.95
2018-03-20T03:46:47.570Z,74.40
2018-03-20T03:49:15.349Z,74.29
2018-03-20T03:51:43.961Z,74.67
2018-03-20T03:54:11.579Z,75.17
2018-03-20T03:56:39.155Z,74.71
2018-03-20T03:59:06.871Z,74.42
2018-03-20T04:01:34.466Z,74.78
2018-03-20T04:04:02.107Z,74.76
2018-03-20T04:06:29.745Z,74.15
2018-03-20T04:08:57.350Z,72.94
2018-03-20T04:11:24.971Z,73.36
2018-03-20T04:13:52.770Z,72.72
2018-03-20T04:16:20.286Z,72.62
2018-03-20T04:18:48.015Z,72.75
2018-03-20T04:21:15.717Z,71.52
2018-03-20T04:23:43.452Z,72.80
2018-03-20T04:26:11.065Z,72.21
2018-03-20T04:28:38.879Z,71.94
2018-03-20T04:31:06.733Z,73.10
2018-03-20T04:33:34.380Z,73.43
2018-03-20T04:36:02.031Z,72.71
2018-03-20T04:38:29.727Z,73.21
2018-03-20T04:40:57.302Z,75.71
2018-03-20T04:43:25.510Z,74.33
2018-03-20T04:45:53.176Z,74.38
2018-03-20T04:48:20.722Z,75.13
2018-03-20T04:50:48.317Z,75.40
2018-03-20T04:53:15.999Z,75.94
2018-03-20T04:55:43.551Z,75.23
2018-03-20T04:58:11.185Z,76.06
2018-03-20T05:00:38.740Z,78.10
2018-03-20T05:03:06.386Z,77.75
2018-03-20T05:05:34.708Z,76.60
2018-03-20T05:08:02.271Z,78.49
2018-03-20T05:10:29.807Z,78.81
2018-03-20T05:12:57.520Z,78.98
2018-03-20T05:15:25.240Z,79.22
2018-03-20T05:17:54.266Z,79.66
2018-03-20T05:20:27.479Z,79.18
2018-03-20T05:23:00.577Z,78.63
2018-03-20T05:25:28.201Z,79.02
2018-03-20T05:27:55.845Z,78.32
2018-03-20T05:30:23.716Z,77.44
2018-03-20T05:32:51.401Z,77.23
2018-03-20T05:35:19.049Z,76.78
2018-03-20T05:37:46.815Z,76.16
2018-03-20T05:40:14.629Z,76.40
2018-03-20T05:42:42.196Z,77.52
2018-03-20T05:45:10.007Z,77.33
2018-03-20T05:47:43.755Z,76.05
2018-03-20T05:50:17.005Z,78.76
2018-03-20T05:52:44.536Z,78.78
2018-03-20T05:55:12.153Z,78.68
2018-03-20T05:57:39.755Z,78.39
2018-03-20T06:00:07.547Z,79.25
2018-03-20T06:02:35.102Z,78.48
2018-03-20T06:05:02.673Z,78.34
2018-03-20T06:07:30.323Z,78.91
2018-03-20T06:09:58.060Z,78.40
2018-03-20T06:12:25.730Z,79.18
2018-03-20T06:14:53.340Z,78.70
2018-03-20T06:17:20.873Z,77.39
2018-03-20T06:19:49.092Z,76.63
2018-03-20T06:22:16.916Z,73.27
2018-03-20T06:24:44.581Z,71.65
2018-03-20T06:27:12.175Z,71.15
2018-03-20T06:29:40.360Z,71.22
2018-03-20T06:32:07.910Z,68.12
2018-03-20T06:34:35.667Z,67.57
2018-03-20T06:37:03.202Z,67.94
2018-03-20T06:39:31.095Z,66.67
2018-03-20T06:41:58.806Z,66.48
2018-03-20T06:44:26.511Z,66.93
2018-03-20T06:46:54.162Z,65.82
2018-03-20T06:49:21.756Z,65.28
2018-03-20T06:51:49.427Z,64.52
2018-03-20T06:54:17.060Z,63.35
2018-03-20T06:56:44.902Z,62.74
2018-03-20T06:59:12.441Z,62.85
2018-03-20T07:01:40.021Z,61.06
2018-03-20T07:04:07.558Z,60.34
2018-03-20T07:06:35.297Z,61.67
2018-03-20T07:09:03.303Z,59.27
2018-03-20T07:11:30.932Z,58.67
2018-03-20T07:13:58.583Z,59.15
2018-03-20T07:16:26.220Z,56.37
2018-03-20T07:18:54.115Z,56.74
2018-03-20T07:21:21.780Z,57.10
2018-03-20T07:23:49.668Z,56.56
2018-03-20T07:26:17.286Z,58.21
2018-03-20T07:28:44.906Z,56.92
2018-03-20T07:31:13.431Z,56.00
2018-03-20T07:33:41.042Z,55.98
2018-03-20T07:36:08.711Z,55.80
2018-03-20T07:38:36.276Z,56.06
2018-03-20T07:41:04.426Z,55.60
2018-03-20T07:43:32.077Z,55.11
2018-03-20T07:45:59.631Z,54.35
2018-03-20T07:48:27.277Z,52.99
2018-03-20T07:50:54.986Z,54.53
2018-03-20T07:53:22.617Z,54.65
2018-03-20T07:55:50.502Z,53.73
2018-03-20T07:58:18.174Z,51.98
2018-03-20T08:00:45.811Z,51.63
2018-03-20T08:03:13.981Z,53.14
2018-03-20T08:05:41.544Z,52.61
2018-03-20T08:08:09.327Z,52.48
2018-03-20T08:10:37.045Z,52.65
2018-03-20T08:13:04.629Z,50.92
2018-03-20T08:15:32.361Z,51.30
2018-03-20T08:18:00.483Z,52.38
2018-03-20T08:20:28.070Z,52.83
2018-03-20T08:22:55.696Z,50.07
2018-03-20T08:25:23.260Z,46.96
2018-03-20T08:27:50.957Z,45.44
2018-03-20T08:30:19.783Z,48.07
2018-03-20T08:32:47.397Z,47.79
2018-03-20T08:35:15.254Z,51.52
2018-03-20T08:37:42.857Z,49.67
2018-03-20T08:40:10.481Z,46.38
2018-03-20T08:42:38.116Z,51.13
2018-03-20T08:45:05.945Z,54.04
2018-03-20T08:47:33.651Z,53.73
2018-03-20T08:50:01.222Z,49.54
2018-03-20T08:52:28.925Z,47.75
2018-03-20T08:54:56.479Z,46.04
2018-03-20T08:57:24.105Z,42.78
2018-03-20T08:59:51.748Z,39.04
2018-03-20T09:02:19.528Z,40.40
2018-03-20T09:04:47.355Z,43.14
2018-03-20T09:07:15.262Z,40.11
2018-03-20T09:09:43.044Z,41.17
2018-03-20T09:12:10.699Z,35.93
2018-03-20T09:14:38.466Z,33.94
2018-03-20T09:17:06.091Z,33.10
2018-03-20T09:19:33.856Z,31.82
2018-03-20T09:22:01.410Z,32.24
2018-03-20T09:24:29.146Z,34.21
2018-03-20T09:26:56.706Z,33.32
2018-03-20T09:29:24.817Z,29.33
2018-03-20T09:31:52.530Z,27.36
2018-03-20T09:34:20.510Z,25.33
2018-03-20T09:36:48.407Z,23.55
2018-03-20T09:39:16.300Z,24.45
2018-03-20T09:41:44.120Z,24.38
2018-03-20T09:44:12.117Z,25.53
2018-03-20T09:46:40.532Z,29.02
2018-03-20T09:49:09.229Z,23.29
2018-03-20T09:51:36.823Z,22.52
2018-03-20T09:54:05.166Z,21.75
2018-03-20T09:56:32.910Z,22.86
2018-03-20T09:59:00.536Z,25.55
2018-03-20T10:01:28.245Z,29.34
2018-03-20T10:03:56.077Z,24.81
2018-03-20T10:06:23.889Z,24.52
2018-03-20T10:08:51.572Z,24.55
2018-03-20T10:11:19.132Z,22.13
2018-03-20T10:13:47.212Z,24.22
2018-03-20T10:16:14.793Z,22.01
2018-03-20T10:18:42.356Z,23.63
2018-03-20T10:21:10.060Z,24.69
2018-03-20T10:23:37.776Z,24.01
2018-03-20T10:26:05.541Z,25.05
2018-03-20T10:28:33.143Z,26.21
2018-03-20T10:31:00.889Z,22.25
2018-03-20T10:33:28.661Z,25.92
2018-03-20T10:35:57.432Z,24.91
2018-03-20T10:38:25.801Z,22.04
2018-03-20T10:40:53.396Z,25.21
2018-03-20T10:43:21.165Z,25.58
2018-03-20T10:45:48.773Z,25.82
2018-03-20T10:48:16.360Z,21.22
2018-03-20T10:50:44.021Z,22.32
2018-03-20T10:53:12.631Z,19.43
2018-03-20T10:55:40.455Z,18.88
2018-03-20T10:58:08.106Z,19.88
2018-03-20T11:03:41.864Z,20.43
2018-03-20T11:06:09.536Z,22.75
2018-03-20T11:08:37.337Z,24.15
2018-03-20T11:11:04.901Z,20.54
2018-03-20T11:13:32.721Z,20.23
2018-03-20T11:16:00.390Z,21.81
2018-03-20T11:18:27.945Z,19.85
2018-03-20T11:20:55.637Z,17.69
2018-03-20T11:23:23.190Z,16.14
2018-03-20T11:25:50.752Z,17.00
2018-03-20T11:28:18.427Z,17.37
2018-03-20T11:30:46.150Z,16.31
2018-03-20T11:33:13.880Z,16.76
2018-03-20T11:35:41.707Z,15.76
2018-03-20T11:38:09.576Z,18.53
2018-03-20T11:40:37.120Z,18.07
2018-03-20T11:43:04.874Z,16.78
2018-03-20T11:45:32.540Z,16.90
2018-03-20T11:48:00.320Z,16.26
2018-03-20T11:50:28.695Z,15.37
2018-03-20T11:52:56.246Z,15.65
2018-03-20T11:55:23.826Z,18.74
2018-03-20T11:57:51.490Z,16.88
2018-03-20T12:00:19.221Z,17.42
2018-03-20T12:02:46.942Z,15.47
2018-03-20T12:05:14.726Z,14.88
2018-03-20T12:07:53.301Z,17.22
2018-03-20T12:10:21.077Z,20.05
2018-03-20T12:12:49.532Z,21.92
2018-03-20T12:15:17.241Z,22.80
2018-03-20T12:17:44.897Z,25.06
2018-03-20T12:20:12.524Z,26.44
2018-03-20T12:22:40.541Z,27.99
2018-03-20T12:25:08.186Z,28.60
2018-03-20T12:27:35.861Z,29.12
2018-03-20T12:30:03.649Z,30.75
2018-03-20T12:32:31.951Z,32.13
2018-03-20T12:34:59.786Z,33.91
2018-03-20T12:37:27.500Z,34.92
2018-03-20T12:39:55.059Z,34.80
2018-03-20T12:42:22.789Z,38.43
2018-03-20T12:44:51.095Z,45.55
2018-03-20T12:47:18.637Z,46.71
2018-03-20T12:49:46.435Z,47.68
2018-03-20T12:52:14.266Z,46.97
2018-03-20T12:54:42.179Z,46.69
2018-03-20T12:57:09.857Z,47.42
2018-03-20T12:59:37.601Z,43.67
2018-03-20T13:02:05.157Z,45.91
2018-03-20T13:04:33.107Z,45.60
2018-03-20T13:07:00.782Z,44.15
2018-03-20T13:09:28.365Z,46.16
2018-03-20T13:11:56.455Z,45.11
2018-03-20T13:14:24.421Z,44.26
2018-03-20T13:16:52.929Z,44.35
2018-03-20T13:19:20.594Z,42.84
2018-03-20T13:21:48.449Z,40.33
2018-03-20T13:24:16.201Z,45.22
2018-03-20T13:26:43.812Z,45.50
2018-03-20T13:29:11.575Z,47.03
2018-03-20T13:31:39.230Z,49.67
2018-03-20T13:34:07.070Z,50.40
2018-03-20T13:36:34.751Z,48.37
2018-03-20T13:39:02.306Z,45.52
2018-03-20T13:41:29.869Z,44.56
2018-03-20T13:43:57.540Z,46.31
2018-03-20T13:46:25.114Z,48.52
2018-03-20T13:48:53.885Z,52.83
2018-03-20T13:51:21.740Z,55.96
2018-03-20T13:53:49.521Z,62.99
2018-03-20T13:56:17.420Z,64.12
2018-03-20T13:58:45.386Z,63.15
2018-03-20T14:01:13.120Z,64.68
2018-03-20T14:03:40.845Z,64.42
2018-03-20T14:06:09.019Z,61.89
2018-03-20T14:08:36.598Z,65.07
2018-03-20T14:11:04.221Z,64.17
2018-03-20T14:13:31.851Z,63.97
2018-03-20T14:15:59.614Z,64.26
2018-03-20T14:18:27.216Z,62.10
2018-03-20T14:20:54.955Z,63.82
2018-03-20T14:23:22.578Z,64.49
2018-03-20T14:25:50.182Z,63.33
2018-03-20T14:28:17.746Z,61.28
2018-03-20T14:30:45.776Z,61.95
2018-03-20T14:33:13.426Z,63.50
2018-03-20T14:35:40.957Z,62.97
2018-03-20T14:38:08.600Z,62.09
2018-03-20T14:40:36.229Z,62.41
2018-03-20T14:43:03.790Z,67.17
2018-03-20T14:45:31.393Z,68.34
2018-03-20T14:47:58.980Z,69.33
2018-03-20T14:50:27.180Z,69.40
2018-03-20T14:52:55.180Z,69.37
2018-03-20T14:55:22.773Z,69.77
2018-03-20T14:57:50.331Z,68.73
2018-03-20T15:00:18.147Z,67.62
2018-03-20T15:02:45.770Z,67.63
2018-03-20T15:05:13.491Z,66.00
2018-03-20T15:07:41.101Z,65.79
2018-03-20T15:10:09.381Z,66.71
2018-03-20T15:12:37.770Z,64.95
2018-03-20T15:15:05.655Z,64.34
2018-03-20T15:17:33.404Z,64.02
2018-03-20T15:20:00.941Z,63.68
2018-03-20T15:22:28.546Z,62.33
2018-03-20T15:24:56.403Z,61.94
2018-03-20T15:27:25.115Z,61.68
2018-03-20T15:29:53.426Z,62.38
2018-03-20T15:32:21.452Z,62.62
2018-03-20T15:34:48.990Z,62.86
2018-03-20T15:37:16.580Z,62.66
2018-03-20T15:39:44.125Z,62.84
2018-03-20T15:42:12.121Z,62.52
2018-03-20T15:44:39.745Z,63.64
2018-03-20T15:47:07.332Z,62.68
2018-03-20T15:49:34.907Z,63.49
2018-03-20T15:52:02.561Z,63.91
2018-03-20T15:54:30.200Z,65.24
2018-03-20T15:56:57.735Z,65.13
2018-03-20T15:59:25.439Z,67.44
2018-03-20T16:01:52.995Z,66.25
2018-03-20T16:04:20.621Z,67.53
2018-03-20T16:06:48.515Z,69.41
2018-03-20T16:09:16.231Z,68.23
2018-03-20T16:11:43.730Z,67.66
2018-03-20T16:14:12.001Z,69.05
2018-03-20T16:16:39.804Z,68.54
2018-03-20T16:19:07.600Z,70.70
2018-03-20T16:21:35.275Z,70.90
2018-03-20T16:24:03.571Z,69.51
2018-03-20T16:26:31.352Z,71.38
2018-03-20T16:28:59.765Z,70.98
2018-03-20T16:31:27.637Z,72.67
2018-03-20T16:33:55.308Z,74.22
2018-03-20T16:36:23.330Z,74.34
2018-03-20T16:38:50.912Z,74.18
2018-03-20T16:41:18.669Z,73.59
2018-03-20T16:43:46.376Z,72.63
2018-03-20T16:46:13.981Z,75.70
2018-03-20T16:48:41.641Z,75.41
2018-03-20T16:51:09.197Z,76.20
2018-03-20T16:53:39.002Z,74.96
2018-03-20T16:56:06.578Z,75.98
2018-03-20T16:58:34.482Z,75.54
2018-03-20T17:01:02.213Z,75.10
2018-03-20T17:03:29.981Z,74.59
2018-03-20T17:05:57.731Z,75.99
2018-03-20T17:08:25.582Z,77.32
2018-03-20T17:10:53.450Z,76.03
2018-03-20T17:13:21.341Z,76.27
2018-03-20T17:15:49.271Z,76.87
2018-03-20T17:18:17.132Z,75.98
2018-03-20T17:20:44.812Z,76.85
2018-03-20T17:23:12.485Z,77.01
2018-03-20T17:25:40.055Z,77.17
2018-03-20T17:28:07.673Z,76.92
2018-03-20T17:30:35.264Z,76.30
2018-03-20T17:33:02.964Z,77.60
2018-03-20T17:35:36.456Z,77.93
2018-03-20T17:38:04.096Z,77.44
2018-03-20T17:40:32.669Z,76.71
2018-03-20T17:43:00.548Z,76.42
2018-03-20T17:45:28.290Z,77.60
2018-03-20T17:47:56.081Z,76.75
2018-03-20T17:50:24.039Z,78.02
2018-03-20T17:52:51.702Z,77.47
2018-03-20T17:55:19.354Z,76.72
2018-03-20T17:57:46.932Z,77.04
2018-03-20T18:00:15.482Z,76.27
2018-03-20T18:02:43.257Z,76.57
2018-03-20T18:05:11.057Z,75.38
2018-03-20T18:07:38.673Z,76.22
2018-03-20T18:10:06.254Z,74.57
2018-03-20T18:12:33.886Z,75.29
2018-03-20T18:15:01.558Z,77.64
2018-03-20T18:17:29.262Z,77.28
2018-03-20T18:19:56.841Z,76.39
2018-03-20T18:22:24.399Z,76.15
2018-03-20T18:24:52.081Z,77.52
2018-03-20T18:27:20.640Z,78.19
2018-03-20T18:29:48.617Z,77.96
2018-03-20T18:32:16.481Z,78.04
2018-03-20T18:34:44.130Z,78.61
2018-03-20T18:37:11.804Z,79.50
2018-03-20T18:39:39.542Z,79.03
2018-03-20T18:42:07.290Z,79.52
2018-03-20T18:44:35.061Z,79.43
2018-03-20T18:47:03.047Z,77.91
2018-03-20T18:49:30.596Z,79.04
2018-03-20T18:51:59.330Z,78.61
2018-03-20T18:54:27.074Z,79.04
2018-03-20T18:56:55.369Z,78.11
2018-03-20T18:59:23.227Z,78.55
2018-03-20T19:01:50.782Z,79.44
2018-03-20T19:04:18.536Z,78.71
2018-03-20T19:06:46.172Z,78.94
2018-03-20T19:09:14.285Z,78.70
2018-03-20T19:11:41.895Z,79.55
2018-03-20T19:14:09.720Z,78.09
2018-03-20T19:16:37.489Z,79.21
2018-03-20T19:19:05.146Z,79.42
2018-03-20T19:21:32.794Z,80.26
2018-03-20T19:24:00.695Z,78.79
2018-03-20T19:26:28.412Z,79.87
2018-03-20T19:28:56.172Z,79.49
2018-03-20T19:31:23.942Z,80.54
2018-03-20T19:33:51.780Z,81.44
2018-03-20T19:36:19.476Z,80.70
2018-03-20T19:38:47.320Z,80.87
2018-03-20T19:41:15.061Z,80.68
2018-03-20T19:43:42.793Z,81.68
2018-03-20T19:46:10.597Z,80.53
2018-03-20T19:48:38.385Z,80.64
2018-03-20T19:51:06.060Z,81.17
2018-03-20T19:53:33.837Z,80.10
2018-03-20T19:56:01.676Z,80.95
2018-03-20T19:58:29.394Z,80.44
2018-03-20T20:00:57.328Z,81.16
2018-03-20T20:03:25.054Z,80.77
2018-03-20T20:05:52.954Z,80.79
2018-03-20T20:08:20.534Z,81.44
2018-03-20T20:10:48.485Z,81.89
2018-03-20T20:13:16.414Z,81.23
2018-03-20T20:15:44.233Z,81.25
2018-03-20T20:18:11.941Z,80.33
2018-03-20T20:20:39.560Z,80.53
2018-03-20T20:23:07.121Z,81.23
2018-03-20T20:25:35.360Z,81.31
2018-03-20T20:28:02.907Z,81.84
2018-03-20T20:30:30.730Z,81.29
2018-03-20T20:32:58.565Z,80.58
2018-03-20T20:35:26.336Z,81.37
2018-03-20T20:37:54.036Z,81.41
2018-03-20T20:40:21.756Z,82.72
2018-03-20T20:42:49.891Z,83.19
2018-03-20T20:45:18.140Z,83.38
2018-03-20T20:47:45.841Z,84.02
2018-03-20T20:50:13.556Z,83.36
2018-03-20T20:52:41.221Z,83.55
2018-03-20T20:55:09.045Z,84.05
2018-03-20T20:57:36.849Z,84.49
2018-03-20T21:00:04.788Z,84.83
2018-03-20T21:02:32.574Z,84.62
2018-03-20T21:05:00.216Z,85.28
2018-03-20T21:07:27.941Z,85.23
2018-03-20T21:09:55.520Z,85.00
2018-03-20T21:12:23.107Z,85.54
2018-03-20T21:14:51.470Z,85.15
2018-03-20T21:17:19.135Z,85.88
2018-03-20T21:19:46.756Z,86.32
2018-03-20T21:22:14.521Z,86.02
2018-03-20T21:24:42.389Z,86.50
2018-03-20T21:27:09.967Z,87.22
2018-03-20T21:29:38.111Z,86.98
2018-03-20T21:32:05.761Z,86.27
2018-03-20T21:34:33.360Z,87.12
2018-03-20T21:37:01.071Z,87.47
2018-03-20T21:39:29.058Z,85.88
2018-03-20T21:41:56.911Z,86.21
2018-03-20T21:44:24.459Z,85.62
2018-03-20T21:46:52.092Z,85.93
2018-03-20T21:49:19.665Z,85.08
2018-03-20T21:51:47.634Z,84.32
2018-03-20T21:54:15.307Z,85.62
2018-03-20T21:56:42.867Z,84.10
2018-03-20T21:59:10.495Z,84.38
2018-03-20T22:01:38.220Z,85.43
2018-03-20T22:04:05.750Z,85.09
2018-03-20T22:06:33.296Z,83.96
2018-03-20T22:09:00.952Z,84.47
2018-03-20T22:11:29.144Z,84.70
2018-03-20T22:13:57.576Z,84.57
2018-03-20T22:16:25.317Z,84.46
2018-03-20T22:18:53.046Z,84.84
2018-03-20T22:21:21.313Z,84.86
2018-03-20T22:23:49.589Z,83.17
2018-03-20T22:26:17.219Z,84.21
2018-03-20T22:28:45.179Z,84.19
2018-03-20T22:31:12.829Z,83.83
2018-03-20T22:33:40.482Z,84.39
2018-03-20T22:36:08.712Z,84.21
2018-03-20T22:38:36.546Z,84.18
2018-03-20T22:41:04.220Z,84.29
2018-03-20T22:43:31.879Z,84.80
2018-03-20T22:45:59.494Z,85.05
2018-03-20T22:48:28.039Z,85.16
2018-03-20T22:50:55.766Z,84.70
2018-03-20T22:53:23.401Z,83.84
2018-03-20T22:55:51.324Z,83.72
2018-03-20T22:58:19.165Z,84.02
2018-03-20T23:00:46.856Z,84.34
2018-03-20T23:03:14.481Z,83.54
2018-03-20T23:05:42.096Z,83.56
2018-03-20T23:08:09.635Z,83.59
2018-03-20T23:10:37.295Z,83.41
2018-03-20T23:13:04.898Z,81.94
2018-03-20T23:15:32.677Z,81.68
2018-03-20T23:18:00.415Z,81.45
2018-03-20T23:20:28.189Z,81.26
2018-03-20T23:22:55.921Z,81.94
2018-03-20T23:25:23.780Z,81.85
2018-03-20T23:27:51.731Z,81.54
2018-03-20T23:30:19.284Z,80.31
2018-03-20T23:32:46.919Z,82.18
2018-03-20T23:35:14.596Z,83.44
2018-03-20T23:37:42.394Z,82.42
2018-03-20T23:40:09.982Z,82.10
2018-03-20T23:42:37.696Z,82.13
2018-03-20T23:45:05.500Z,83.11
2018-03-20T23:47:34.239Z,83.25
2018-03-20T23:50:01.796Z,82.40
2018-03-20T23:52:29.510Z,82.82
2018-03-20T23:54:57.211Z,81.98
2018-03-20T23:57:24.814Z,81.52
2018-03-20T23:59:52.792Z,81.37
